Time;durP1;ratioP1;P1;durP2;ratioP2;P2;SDS_P1;SDS_P2;PMS_P1;PMS_P2;Temp;Humidity;BMP_temperature;BMP_pressure;BME280_temperature;BME280_humidity;BME280_pressure;Samples;Min_cycle;Max_cycle;Signal;HPM_P1;HPM_P2
2023/02/24 00:00:37;;;;;;;27.15;4.30;;;;;;;;;;1029827;28;20026;-28
2023/02/24 00:01:12;;;;;;;16.83;4.78;;;;;;;;;;1029762;28;20407;-28
2023/02/24 00:01:51;;;;;;;10.07;5.78;;;;;;;;;;1029756;28;20022;-28
2023/02/24 00:02:21;;;;;;;7.38;2.85;;;;;;;;;;1029042;28;20033;-28
2023/02/24 00:02:52;;;;;;;10.70;3.50;;;;;;;;;;1029942;28;20574;-28
2023/02/24 00:03:22;;;;;;;18.10;3.47;;;;;;;;;;1029979;28;21191;-28
2023/02/24 00:03:57;;;;;;;15.93;5.82;;;;;;;;;;1029900;28;20054;-28
2023/02/24 00:04:29;;;;;;;15.88;5.35;;;;;;;;;;1029759;28;20117;-28
2023/02/24 00:04:59;;;;;;;18.27;4.60;;;;;;;;;;1030035;28;20034;-28
2023/02/24 00:05:33;;;;;;;9.32;3.13;;;;;;;;;;1029870;28;20025;-27
2023/02/24 00:06:10;;;;;;;10.77;3.50;;;;;;;;;;1029852;28;20030;-28
2023/02/24 00:06:42;;;;;;;5.72;3.17;;;;;;;;;;1029516;28;20027;-28
2023/02/24 00:07:13;;;;;;;13.13;2.83;;;;;;;;;;1029974;28;20087;-27
2023/02/24 00:07:43;;;;;;;9.38;4.00;;;;;;;;;;1029855;28;20082;-27
2023/02/24 00:08:14;;;;;;;16.45;4.88;;;;;;;;;;1029971;28;20031;-27
2023/02/24 00:08:46;;;;;;;12.75;4.90;;;;;;;;;;1029555;28;20117;-28
2023/02/24 00:09:18;;;;;;;11.52;4.50;;;;;;;;;;1029665;28;20033;-28
2023/02/24 00:09:48;;;;;;;23.25;6.88;;;;;;;;;;1029730;28;20056;-28
2023/02/24 00:10:20;;;;;;;11.00;6.00;;;;;;;;;;1029634;28;20026;-28
2023/02/24 00:10:51;;;;;;;7.35;3.38;;;;;;;;;;1029934;28;20454;-28
2023/02/24 00:11:22;;;;;;;5.80;4.07;;;;;;;;;;1029782;28;20446;-28
2023/02/24 00:11:54;;;;;;;9.27;4.00;;;;;;;;;;1030992;28;20026;-28
2023/02/24 00:12:24;;;;;;;7.13;4.20;;;;;;;;;;1031535;28;20107;-28
2023/02/24 00:12:55;;;;;;;3.80;2.15;;;;;;;;;;1031724;28;20577;-28
2023/02/24 00:13:25;;;;;;;8.05;4.90;;;;;;;;;;1031555;28;20026;-27
2023/02/24 00:13:56;;;;;;;8.68;4.32;;;;;;;;;;1029903;28;20548;-28
2023/02/24 00:14:29;;;;;;;19.73;5.38;;;;;;;;;;1029644;28;20019;-28
2023/02/24 00:15:00;;;;;;;8.93;4.32;;;;;;;;;;1028863;28;20041;-28
2023/02/24 00:15:30;;;;;;;13.63;3.83;;;;;;;;;;1029851;28;20045;-28
2023/02/24 00:16:02;;;;;;;10.90;3.90;;;;;;;;;;1029793;28;20517;-28
2023/02/24 00:16:33;;;;;;;11.32;4.75;;;;;;;;;;1029633;28;20106;-28
2023/02/24 00:17:06;;;;;;;12.75;4.10;;;;;;;;;;1028984;28;20022;-28
2023/02/24 00:17:37;;;;;;;8.55;4.13;;;;;;;;;;1029696;28;20109;-28
2023/02/24 00:18:08;;;;;;;9.85;4.25;;;;;;;;;;1027691;28;20034;-28
2023/02/24 00:18:38;;;;;;;6.90;3.47;;;;;;;;;;1027409;28;20027;-28
2023/02/24 00:19:12;;;;;;;7.00;3.97;;;;;;;;;;1027663;28;20027;-28
2023/02/24 00:19:43;;;;;;;8.50;3.72;;;;;;;;;;1027782;28;20023;-28
2023/02/24 00:20:15;;;;;;;8.65;3.33;;;;;;;;;;1029872;28;20492;-28
2023/02/24 00:20:45;;;;;;;9.43;3.50;;;;;;;;;;1029858;28;20023;-28
2023/02/24 00:21:16;;;;;;;8.95;5.47;;;;;;;;;;1030110;28;20072;-28
2023/02/24 00:21:46;;;;;;;13.02;3.63;;;;;;;;;;1029586;28;20504;-26
2023/02/24 00:22:17;;;;;;;20.33;2.85;;;;;;;;;;1029385;28;20038;-28
2023/02/24 00:22:47;;;;;;;7.97;3.30;;;;;;;;;;1030895;28;20030;-28
2023/02/24 00:23:18;;;;;;;9.57;3.88;;;;;;;;;;1029623;28;20073;-27
2023/02/24 00:23:49;;;;;;;12.18;3.78;;;;;;;;;;1029856;28;20034;-28
2023/02/24 00:24:20;;;;;;;8.95;4.40;;;;;;;;;;1029741;28;20470;-28
2023/02/24 00:24:52;;;;;;;6.80;3.85;;;;;;;;;;1029710;28;20470;-27
2023/02/24 00:25:23;;;;;;;10.35;3.97;;;;;;;;;;1029870;28;20021;-28
2023/02/24 00:25:59;;;;;;;10.48;4.57;;;;;;;;;;1029660;28;20451;-28
2023/02/24 00:26:30;;;;;;;10.80;3.72;;;;;;;;;;1029629;28;20023;-28
2023/02/24 00:27:01;;;;;;;6.32;3.63;;;;;;;;;;1029843;28;20383;-28
2023/02/24 00:27:32;;;;;;;9.52;3.97;;;;;;;;;;1029779;28;20030;-28
2023/02/24 00:28:02;;;;;;;5.40;3.80;;;;;;;;;;1030001;28;20030;-28
2023/02/24 00:28:33;;;;;;;15.27;3.05;;;;;;;;;;1029866;28;20041;-28
2023/02/24 00:29:05;;;;;;;11.38;4.05;;;;;;;;;;1030101;28;20022;-27
2023/02/24 00:29:36;;;;;;;6.18;2.95;;;;;;;;;;1029529;28;20505;-28
2023/02/24 00:30:09;;;;;;;8.23;3.25;;;;;;;;;;1028800;28;20645;-28
2023/02/24 00:30:40;;;;;;;7.43;3.97;;;;;;;;;;1029593;28;20037;-28
2023/02/24 00:31:15;;;;;;;5.85;3.13;;;;;;;;;;1029915;28;20033;-28
2023/02/24 00:31:45;;;;;;;8.63;4.15;;;;;;;;;;1029499;28;20058;-27
2023/02/24 00:32:16;;;;;;;10.10;4.60;;;;;;;;;;1029700;28;20023;-27
2023/02/24 00:32:46;;;;;;;15.68;4.63;;;;;;;;;;1029853;28;20478;-28
2023/02/24 00:33:22;;;;;;;10.40;3.85;;;;;;;;;;1029719;28;20058;-27
2023/02/24 00:33:55;;;;;;;11.18;4.22;;;;;;;;;;1029860;28;20109;-28
2023/02/24 00:34:29;;;;;;;17.23;6.05;;;;;;;;;;1029714;28;20457;-28
2023/02/24 00:35:00;;;;;;;10.77;4.20;;;;;;;;;;1029703;28;20025;-28
2023/02/24 00:35:31;;;;;;;23.17;5.47;;;;;;;;;;1029536;28;20030;-28
2023/02/24 00:36:20;;;;;;;16.95;5.57;;;;;;;;;;1029719;28;20031;-28
2023/02/24 00:36:53;;;;;;;12.15;5.68;;;;;;;;;;1029726;28;20027;-28
2023/02/24 00:37:23;;;;;;;11.48;4.38;;;;;;;;;;1029893;28;20030;-28
2023/02/24 00:37:54;;;;;;;4.75;3.25;;;;;;;;;;1029823;28;20030;-27
2023/02/24 00:38:25;;;;;;;7.60;3.80;;;;;;;;;;1028662;28;20446;-28
2023/02/24 00:38:56;;;;;;;6.65;3.90;;;;;;;;;;1029910;28;20446;-27
2023/02/24 00:39:28;;;;;;;5.70;3.58;;;;;;;;;;1028952;28;20074;-28
2023/02/24 00:39:59;;;;;;;5.28;2.78;;;;;;;;;;1029508;28;20022;-28
2023/02/24 00:40:30;;;;;;;4.50;2.33;;;;;;;;;;1029553;28;20117;-28
2023/02/24 00:41:21;;;;;;;11.75;3.90;;;;;;;;;;1029979;28;20023;-28
2023/02/24 00:41:51;;;;;;;10.90;5.82;;;;;;;;;;1028703;28;20034;-28
2023/02/24 00:42:22;;;;;;;8.07;2.83;;;;;;;;;;1029677;28;20145;-28
2023/02/24 00:42:52;;;;;;;6.07;3.03;;;;;;;;;;1029752;28;20780;-28
2023/02/24 00:43:23;;;;;;;20.98;3.78;;;;;;;;;;1029841;28;20023;-28
2023/02/24 00:43:55;;;;;;;7.35;3.70;;;;;;;;;;1029714;28;20126;-28
2023/02/24 00:44:28;;;;;;;10.77;3.15;;;;;;;;;;1029588;28;20022;-28
2023/02/24 00:44:59;;;;;;;6.22;3.15;;;;;;;;;;1029723;28;20037;-27
2023/02/24 00:45:32;;;;;;;7.07;3.78;;;;;;;;;;1029805;28;20387;-27
2023/02/24 00:46:09;;;;;;;14.07;3.70;;;;;;;;;;1029988;28;20114;-30
2023/02/24 00:46:44;;;;;;;10.20;3.05;;;;;;;;;;1029348;28;20023;-30
2023/02/24 00:47:15;;;;;;;11.48;3.33;;;;;;;;;;1029372;28;20023;-30
2023/02/24 00:47:46;;;;;;;13.27;3.97;;;;;;;;;;1029528;28;20081;-30
2023/02/24 00:48:16;;;;;;;9.55;4.03;;;;;;;;;;1028335;28;20023;-31
2023/02/24 00:48:47;;;;;;;7.80;3.40;;;;;;;;;;1029325;28;20038;-29
2023/02/24 00:49:19;;;;;;;6.38;3.40;;;;;;;;;;1029454;28;20037;-30
2023/02/24 00:49:50;;;;;;;6.00;4.45;;;;;;;;;;1029163;28;20025;-30
2023/02/24 00:50:20;;;;;;;12.32;5.10;;;;;;;;;;1028933;28;20109;-31
2023/02/24 00:50:51;;;;;;;6.95;4.40;;;;;;;;;;1029927;28;20030;-30
2023/02/24 00:51:23;;;;;;;9.18;4.32;;;;;;;;;;1029854;28;20030;-29
2023/02/24 00:51:53;;;;;;;13.25;3.92;;;;;;;;;;1029697;28;20069;-30
2023/02/24 00:52:26;;;;;;;10.27;4.43;;;;;;;;;;1029406;28;20142;-30
2023/02/24 00:52:57;;;;;;;13.95;5.45;;;;;;;;;;1029849;28;20022;-30
2023/02/24 00:53:28;;;;;;;8.35;5.53;;;;;;;;;;1028528;28;20061;-31
2023/02/24 00:53:59;;;;;;;18.42;5.32;;;;;;;;;;1029257;28;20473;-31
2023/02/24 00:54:29;;;;;;;11.25;4.65;;;;;;;;;;1028916;28;20022;-31
2023/02/24 00:55:00;;;;;;;14.27;5.63;;;;;;;;;;1029745;28;20033;-30
2023/02/24 00:55:35;;;;;;;14.25;5.45;;;;;;;;;;1028900;28;20019;-30
2023/02/24 00:56:06;;;;;;;24.13;5.07;;;;;;;;;;1029610;28;20053;-28
2023/02/24 00:56:36;;;;;;;20.83;4.88;;;;;;;;;;1029177;28;20103;-27
2023/02/24 00:57:07;;;;;;;7.55;3.58;;;;;;;;;;1029442;28;20026;-27
2023/02/24 00:57:39;;;;;;;17.90;5.70;;;;;;;;;;1029389;28;20035;-27
2023/02/24 00:58:09;;;;;;;12.20;4.82;;;;;;;;;;1029701;28;20085;-28
2023/02/24 00:58:40;;;;;;;27.35;5.22;;;;;;;;;;1030766;28;20050;-28
2023/02/24 00:59:11;;;;;;;16.42;5.60;;;;;;;;;;1031394;28;20362;-28
2023/02/24 00:59:46;;;;;;;15.93;6.00;;;;;;;;;;1030604;28;20030;-28
2023/02/24 01:00:18;;;;;;;12.70;5.65;;;;;;;;;;1029854;28;20026;-28
2023/02/24 01:00:49;;;;;;;10.18;3.78;;;;;;;;;;1029767;28;20026;-27
2023/02/24 01:01:20;;;;;;;12.45;4.25;;;;;;;;;;1029301;28;20022;-27
2023/02/24 01:01:53;;;;;;;8.48;4.43;;;;;;;;;;1029491;28;20026;-28
2023/02/24 01:02:24;;;;;;;18.20;5.68;;;;;;;;;;1029633;28;20027;-27
2023/02/24 01:02:58;;;;;;;20.98;5.97;;;;;;;;;;1029612;28;20061;-28
2023/02/24 01:03:28;;;;;;;7.85;3.30;;;;;;;;;;1029291;28;20527;-28
2023/02/24 01:04:04;;;;;;;6.50;4.38;;;;;;;;;;1029401;28;20063;-28
2023/02/24 01:04:36;;;;;;;18.30;5.82;;;;;;;;;;1029521;28;20036;-28
2023/02/24 01:05:08;;;;;;;14.45;6.85;;;;;;;;;;1028541;28;20700;-28
2023/02/24 01:05:38;;;;;;;25.90;10.98;;;;;;;;;;1029314;28;20384;-28
2023/02/24 01:06:11;;;;;;;11.07;5.95;;;;;;;;;;1029836;28;20037;-27
2023/02/24 01:06:44;;;;;;;8.13;4.22;;;;;;;;;;1029540;28;20038;-28
2023/02/24 01:07:15;;;;;;;10.43;5.38;;;;;;;;;;1028357;28;20018;-28
2023/02/24 01:07:45;;;;;;;8.45;4.30;;;;;;;;;;1029070;28;20117;-27
2023/02/24 01:08:20;;;;;;;19.65;6.30;;;;;;;;;;1028886;28;20033;-28
2023/02/24 01:08:52;;;;;;;7.38;4.22;;;;;;;;;;1029033;28;20107;-28
2023/02/24 01:09:22;;;;;;;11.35;5.57;;;;;;;;;;1029493;28;20098;-28
2023/02/24 01:09:53;;;;;;;5.53;3.80;;;;;;;;;;1029829;28;20663;-28
2023/02/24 01:10:25;;;;;;;11.40;4.80;;;;;;;;;;1029388;28;20030;-31
2023/02/24 01:12:37;;;;;;;8.30;4.85;;;;;;;;;;1029504;28;19910;-30
2023/02/24 01:13:08;;;;;;;24.17;4.90;;;;;;;;;;1029337;28;20133;-30
2023/02/24 01:13:38;;;;;;;7.47;5.00;;;;;;;;;;1029403;28;20501;-30
2023/02/24 01:14:11;;;;;;;21.70;6.10;;;;;;;;;;1029471;28;20030;-27
2023/02/24 01:14:43;;;;;;;15.70;5.60;;;;;;;;;;1029308;28;20025;-28
2023/02/24 01:15:15;;;;;;;11.50;3.70;;;;;;;;;;1029720;28;20114;-28
2023/02/24 01:15:46;;;;;;;22.02;5.57;;;;;;;;;;1029569;28;20479;-28
2023/02/24 01:16:19;;;;;;;22.05;5.88;;;;;;;;;;1029644;28;20085;-27
2023/02/24 01:16:50;;;;;;;16.83;5.65;;;;;;;;;;1029424;28;20457;-27
2023/02/24 01:17:21;;;;;;;16.60;5.20;;;;;;;;;;1028988;28;20054;-26
2023/02/24 01:17:51;;;;;;;15.88;7.20;;;;;;;;;;1030023;28;20066;-27
2023/02/24 01:18:22;;;;;;;9.43;4.18;;;;;;;;;;1029228;28;20026;-27
2023/02/24 01:18:52;;;;;;;6.15;4.32;;;;;;;;;;1028814;28;20435;-28
2023/02/24 01:19:29;;;;;;;8.55;4.43;;;;;;;;;;1029187;28;20407;-28
2023/02/24 01:20:14;;;;;;;6.75;4.50;;;;;;;;;;1028075;28;20053;-28
2023/02/24 01:20:45;;;;;;;6.78;3.97;;;;;;;;;;1028668;28;20502;-28
2023/02/24 01:21:16;;;;;;;6.53;3.08;;;;;;;;;;1028037;28;20042;-27
2023/02/24 01:21:50;;;;;;;11.40;5.72;;;;;;;;;;1029523;28;20064;-27
2023/02/24 01:22:21;;;;;;;5.72;3.72;;;;;;;;;;1028085;28;20113;-28
2023/02/24 01:22:52;;;;;;;8.75;3.33;;;;;;;;;;1028528;28;20078;-28
2023/02/24 01:23:23;;;;;;;11.10;4.03;;;;;;;;;;1028305;28;20167;-29
2023/02/24 01:23:53;;;;;;;4.13;2.70;;;;;;;;;;1028409;28;20077;-28
2023/02/24 01:24:24;;;;;;;6.65;3.90;;;;;;;;;;1028455;28;20478;-29
2023/02/24 01:24:55;;;;;;;15.65;3.13;;;;;;;;;;1027344;28;20462;-28
2023/02/24 01:25:26;;;;;;;10.63;5.07;;;;;;;;;;1029408;28;20149;-28
2023/02/24 01:25:58;;;;;;;2.85;1.73;;;;;;;;;;1028159;28;20066;-29
2023/02/24 01:26:29;;;;;;;10.00;3.72;;;;;;;;;;1026764;28;20485;-29
2023/02/24 01:27:00;;;;;;;7.03;3.42;;;;;;;;;;1026746;28;20034;-28
2023/02/24 01:27:31;;;;;;;11.45;5.43;;;;;;;;;;1027548;28;20386;-28
2023/02/24 01:28:01;;;;;;;6.93;4.88;;;;;;;;;;1028916;28;20398;-28
2023/02/24 01:28:32;;;;;;;6.90;2.92;;;;;;;;;;1028532;28;20487;-29
2023/02/24 01:29:04;;;;;;;32.42;6.10;;;;;;;;;;1026755;28;20027;-28
2023/02/24 01:29:38;;;;;;;8.60;4.47;;;;;;;;;;1027229;28;20023;-30
2023/02/24 01:30:14;;;;;;;15.50;4.85;;;;;;;;;;1027043;28;20058;-29
2023/02/24 01:30:45;;;;;;;7.95;4.35;;;;;;;;;;1027092;28;20030;-29
2023/02/24 01:31:18;;;;;;;12.38;6.43;;;;;;;;;;1027156;28;20054;-30
2023/02/24 01:31:50;;;;;;;11.25;5.78;;;;;;;;;;1026957;28;20034;-30
2023/02/24 01:32:21;;;;;;;9.55;5.35;;;;;;;;;;1028207;28;20379;-30
2023/02/24 01:32:51;;;;;;;9.07;4.68;;;;;;;;;;1026484;28;20035;-30
2023/02/24 01:33:22;;;;;;;9.57;4.38;;;;;;;;;;1024886;28;20534;-30
2023/02/24 01:33:53;;;;;;;12.38;5.28;;;;;;;;;;1025313;28;20027;-29
2023/02/24 01:34:27;;;;;;;21.83;5.72;;;;;;;;;;1024742;28;20121;-29
2023/02/24 01:34:58;;;;;;;12.48;4.75;;;;;;;;;;1027821;28;20117;-30
2023/02/24 01:35:30;;;;;;;9.05;5.25;;;;;;;;;;1027632;28;20027;-29
2023/02/24 01:36:11;;;;;;;17.60;7.88;;;;;;;;;;1027714;28;20041;-29
2023/02/24 01:36:44;;;;;;;12.23;5.57;;;;;;;;;;1026203;28;20165;-29
2023/02/24 01:37:15;;;;;;;12.68;5.95;;;;;;;;;;1023984;28;20027;-27
2023/02/24 01:37:46;;;;;;;14.48;6.30;;;;;;;;;;1023544;28;20122;-29
2023/02/24 01:38:21;;;;;;;15.18;6.53;;;;;;;;;;1024197;28;20031;-29
2023/02/24 01:38:52;;;;;;;12.63;5.72;;;;;;;;;;1025807;28;20113;-29
2023/02/24 01:39:24;;;;;;;13.20;7.00;;;;;;;;;;1028257;28;20070;-29
2023/02/24 01:39:55;;;;;;;11.18;5.97;;;;;;;;;;1029026;28;20022;-29
2023/02/24 01:40:26;;;;;;;23.63;7.05;;;;;;;;;;1026515;28;20800;-29
2023/02/24 01:40:58;;;;;;;11.68;5.72;;;;;;;;;;1027134;28;20034;-29
2023/02/24 01:41:30;;;;;;;13.60;6.60;;;;;;;;;;1027882;28;20435;-29
2023/02/24 01:42:02;;;;;;;11.82;6.88;;;;;;;;;;1023757;28;20026;-28
2023/02/24 01:42:33;;;;;;;10.50;6.60;;;;;;;;;;1022959;28;20559;-29
2023/02/24 01:43:07;;;;;;;11.98;6.57;;;;;;;;;;1023563;28;20140;-28
2023/02/24 01:44:00;;;;;;;11.25;6.03;;;;;;;;;;1023698;28;20594;-29
2023/02/24 01:44:32;;;;;;;20.50;4.50;;;;;;;;;;1028442;28;20082;-29
2023/02/24 01:45:05;;;;;;;18.35;8.30;;;;;;;;;;1029069;28;20033;-28
2023/02/24 01:45:38;;;;;;;20.15;5.40;;;;;;;;;;1028270;28;20033;-29
2023/02/24 01:46:09;;;;;;;16.35;6.82;;;;;;;;;;1029550;28;20454;-29
2023/02/24 01:46:41;;;;;;;19.10;6.63;;;;;;;;;;1024610;28;20020;-29
2023/02/24 01:47:13;;;;;;;12.10;6.32;;;;;;;;;;1024049;28;20518;-29
2023/02/24 01:47:46;;;;;;;13.27;5.60;;;;;;;;;;1023541;28;20027;-29
2023/02/24 01:48:16;;;;;;;10.52;6.60;;;;;;;;;;1025535;28;20019;-31
2023/02/24 01:48:47;;;;;;;28.40;5.63;;;;;;;;;;1028216;28;20030;-30
2023/02/24 01:49:23;;;;;;;8.65;3.97;;;;;;;;;;1029238;28;20038;-30
2023/02/24 01:49:54;;;;;;;17.38;6.65;;;;;;;;;;1027306;28;20112;-30
2023/02/24 01:50:26;;;;;;;12.60;6.18;;;;;;;;;;1024504;28;20026;-29
2023/02/24 01:50:57;;;;;;;17.70;7.85;;;;;;;;;;1028135;28;20041;-29
2023/02/24 01:51:30;;;;;;;12.52;4.18;;;;;;;;;;1028697;28;20121;-30
2023/02/24 01:52:05;;;;;;;17.17;7.53;;;;;;;;;;1029144;28;20504;-30
2023/02/24 01:52:37;;;;;;;21.30;7.47;;;;;;;;;;1027760;28;20505;-29
2023/02/24 01:53:10;;;;;;;14.70;7.32;;;;;;;;;;1028379;28;20022;-30
2023/02/24 01:53:41;;;;;;;15.38;6.70;;;;;;;;;;1024603;28;20121;-29
2023/02/24 01:54:14;;;;;;;18.67;9.50;;;;;;;;;;1026730;28;20038;-29
2023/02/24 01:54:53;;;;;;;41.28;9.40;;;;;;;;;;1026144;28;20062;-30
2023/02/24 01:55:31;;;;;;;14.95;6.25;;;;;;;;;;1025468;28;20555;-28
2023/02/24 01:56:01;;;;;;;16.38;7.38;;;;;;;;;;1028847;28;20035;-30
2023/02/24 01:56:32;;;;;;;22.73;6.90;;;;;;;;;;1028636;28;20030;-29
2023/02/24 01:57:04;;;;;;;19.55;7.47;;;;;;;;;;1029031;28;20076;-30
2023/02/24 01:57:37;;;;;;;11.18;6.68;;;;;;;;;;1028791;28;20416;-30
2023/02/24 01:58:10;;;;;;;18.02;8.80;;;;;;;;;;1028223;28;20502;-31
2023/02/24 01:58:41;;;;;;;15.95;6.15;;;;;;;;;;1028425;28;20402;-30
2023/02/24 01:59:14;;;;;;;20.10;8.07;;;;;;;;;;1029372;28;20039;-30
2023/02/24 01:59:46;;;;;;;10.98;6.85;;;;;;;;;;1028148;28;20133;-30
2023/02/24 02:00:31;;;;;;;14.65;7.40;;;;;;;;;;1027864;28;20491;-29
2023/02/24 02:01:07;;;;;;;10.60;7.82;;;;;;;;;;1028959;28;20037;-30
2023/02/24 02:01:41;;;;;;;12.07;6.85;;;;;;;;;;1028154;28;20022;-30
2023/02/24 02:02:12;;;;;;;15.98;5.88;;;;;;;;;;1024122;28;20026;-29
2023/02/24 02:02:45;;;;;;;14.90;7.05;;;;;;;;;;1023523;28;20065;-29
2023/02/24 02:03:23;;;;;;;18.08;7.35;;;;;;;;;;1024320;28;20026;-30
2023/02/24 02:03:57;;;;;;;11.32;7.20;;;;;;;;;;1025207;28;20585;-30
2023/02/24 02:04:37;;;;;;;18.85;5.43;;;;;;;;;;1028820;28;20229;-31
2023/02/24 02:05:08;;;;;;;;;;;;;;;;;;1028770;28;20034;-29
2023/02/24 02:05:40;;;;;;;44.42;18.85;;;;;;;;;;1026517;28;19914;-28
2023/02/24 02:06:11;;;;;;;32.80;16.92;;;;;;;;;;1023800;28;20034;-29
2023/02/24 02:06:44;;;;;;;44.30;21.42;;;;;;;;;;1025450;28;20035;-30
2023/02/24 02:07:16;;;;;;;54.35;24.35;;;;;;;;;;1024581;28;20023;-28
2023/02/24 02:07:48;;;;;;;39.15;15.35;;;;;;;;;;1025493;28;20061;-29
2023/02/24 02:08:20;;;;;;;27.80;14.00;;;;;;;;;;1027968;28;20598;-29
2023/02/24 02:08:51;;;;;;;26.48;11.60;;;;;;;;;;1028125;28;20027;-29
2023/02/24 02:09:21;;;;;;;26.05;10.25;;;;;;;;;;1028824;28;20127;-29
2023/02/24 02:09:53;;;;;;;24.17;10.27;;;;;;;;;;1027770;28;20022;-30
2023/02/24 02:10:27;;;;;;;20.85;9.95;;;;;;;;;;1028231;28;20065;-29
2023/02/24 02:11:02;;;;;;;17.42;7.53;;;;;;;;;;1023961;28;20585;-30
2023/02/24 02:11:32;;;;;;;15.65;9.18;;;;;;;;;;1024405;28;20041;-29
2023/02/24 02:12:03;;;;;;;29.30;11.65;;;;;;;;;;1024712;28;20030;-28
2023/02/24 02:12:42;;;;;;;12.70;6.70;;;;;;;;;;1024620;28;20027;-29
2023/02/24 02:13:19;;;;;;;12.93;7.55;;;;;;;;;;1028679;28;20504;-31
2023/02/24 02:13:51;;;;;;;22.58;8.00;;;;;;;;;;1026233;28;20042;-30
2023/02/24 02:14:24;;;;;;;26.05;8.90;;;;;;;;;;1027726;28;21087;-28
2023/02/24 02:14:57;;;;;;;31.23;10.35;;;;;;;;;;1028009;28;20030;-29
2023/02/24 02:15:28;;;;;;;16.27;9.02;;;;;;;;;;1025809;28;20376;-30
2023/02/24 02:16:12;;;;;;;18.88;8.48;;;;;;;;;;1026087;28;20133;-27
2023/02/24 02:16:55;;;;;;;24.33;8.88;;;;;;;;;;1025760;28;20034;-29
2023/02/24 02:17:35;;;;;;;19.80;9.82;;;;;;;;;;1028310;28;20477;-29
2023/02/24 02:18:06;;;;;;;;;;;;;;;;;;1028807;28;20518;-32
2023/02/24 02:19:04;;;;;;;22.65;11.63;;;;;;;;;;1028016;28;19910;-28
2023/02/24 02:19:41;;;;;;;21.00;10.85;;;;;;;;;;1023098;28;20500;-28
2023/02/24 02:20:30;;;;;;;25.63;11.68;;;;;;;;;;1027785;28;20887;-28
2023/02/24 02:21:42;;;;;;;14.27;9.65;;;;;;;;;;1026109;28;20113;-28
2023/02/24 02:22:29;;;;;;;20.70;9.68;;;;;;;;;;1011824;29;20029;-28
2023/02/24 02:23:19;;;;;;;22.55;10.98;;;;;;;;;;1012371;29;20023;-29
2023/02/24 02:23:49;;;;;;;25.77;10.18;;;;;;;;;;1012508;29;20092;-30
2023/02/24 02:24:55;;;;;;;13.32;8.50;;;;;;;;;;1011094;29;20182;-30
2023/02/24 02:25:44;;;;;;;33.30;10.57;;;;;;;;;;997057;29;20490;-29
2023/02/24 02:26:31;;;;;;;28.92;8.48;;;;;;;;;;997941;29;20470;-30
2023/02/24 02:27:18;;;;;;;15.88;7.35;;;;;;;;;;995933;29;20104;-29
2023/02/24 02:28:15;;;;;;;11.85;8.20;;;;;;;;;;998780;29;20021;-30
2023/02/24 02:28:52;;;;;;;11.45;5.57;;;;;;;;;;1021488;28;20069;-30
2023/02/24 02:29:30;;;;;;;11.63;5.60;;;;;;;;;;1022219;28;20021;-30
2023/02/24 02:30:12;;;;;;;21.58;6.88;;;;;;;;;;1025218;28;20042;-29
2023/02/24 02:30:46;;;;;;;11.88;6.45;;;;;;;;;;1024200;28;20037;-30
2023/02/24 02:31:40;;;;;;;9.25;6.95;;;;;;;;;;1025799;28;20030;-30
2023/02/24 02:32:30;;;;;;;16.15;7.15;;;;;;;;;;1028119;28;20371;-30
2023/02/24 02:33:06;;;;;;;16.92;7.50;;;;;;;;;;1026352;28;20209;-29
2023/02/24 02:34:06;;;;;;;22.20;7.35;;;;;;;;;;1027262;28;20105;-30
2023/02/24 02:34:38;;;;;;;15.50;4.90;;;;;;;;;;1023706;28;20134;-29
2023/02/24 02:35:16;;;;;;;15.80;6.55;;;;;;;;;;1027268;28;20038;-30
2023/02/24 02:35:47;;;;;;;13.38;6.18;;;;;;;;;;1025329;28;20030;-30
2023/02/24 02:36:26;;;;;;;11.15;5.20;;;;;;;;;;1028432;28;20053;-30
2023/02/24 02:37:04;;;;;;;32.70;8.00;;;;;;;;;;1024922;28;20434;-30
2023/02/24 02:37:43;;;;;;;21.95;8.05;;;;;;;;;;1025706;28;20029;-30
2023/02/24 02:38:31;;;;;;;19.48;9.82;;;;;;;;;;1026393;28;20105;-30
2023/02/24 02:39:03;;;;;;;15.43;6.47;;;;;;;;;;1021960;28;20034;-30
2023/02/24 02:39:57;;;;;;;18.80;7.82;;;;;;;;;;1021669;28;20036;-31
2023/02/24 02:40:51;;;;;;;9.55;4.65;;;;;;;;;;1012831;28;20044;-29
2023/02/24 02:41:29;;;;;;;14.88;6.15;;;;;;;;;;1019779;28;20063;-28
2023/02/24 02:42:00;;;;;;;12.85;6.63;;;;;;;;;;1029931;28;20026;-28
2023/02/24 02:42:44;;;;;;;13.45;4.97;;;;;;;;;;1025425;28;20026;-28
2023/02/24 02:43:16;;;;;;;16.70;5.28;;;;;;;;;;1026732;28;20121;-29
2023/02/24 02:43:54;;;;;;;17.15;6.18;;;;;;;;;;1027858;28;20391;-29
2023/02/24 02:44:34;;;;;;;17.38;5.13;;;;;;;;;;1027190;28;20026;-29
2023/02/24 02:45:08;;;;;;;6.57;4.70;;;;;;;;;;1029357;28;20069;-29
2023/02/24 02:45:46;;;;;;;33.65;6.20;;;;;;;;;;1027468;28;20034;-29
2023/02/24 02:46:33;;;;;;;41.67;5.70;;;;;;;;;;1025270;28;20031;-30
2023/02/24 02:47:12;;;;;;;8.85;4.65;;;;;;;;;;1027958;28;20026;-30
2023/02/24 02:48:15;;;;;;;15.55;5.88;;;;;;;;;;1028636;28;20034;-29
2023/02/24 02:48:59;;;;;;;9.77;5.10;;;;;;;;;;1015634;29;20026;-30
2023/02/24 02:49:38;;;;;;;9.10;4.88;;;;;;;;;;1018196;29;20044;-29
2023/02/24 02:50:17;;;;;;;13.20;6.47;;;;;;;;;;1025911;28;20030;-29
2023/02/24 02:51:03;;;;;;;10.30;6.78;;;;;;;;;;1022039;28;20023;-30
2023/02/24 02:51:39;;;;;;;25.65;5.43;;;;;;;;;;1020607;29;20040;-29
2023/02/24 02:52:21;;;;;;;15.07;6.80;;;;;;;;;;1016496;29;20023;-31
2023/02/24 02:52:54;;;;;;;11.02;5.38;;;;;;;;;;1018432;29;20031;-30
2023/02/24 02:53:33;;;;;;;11.00;4.47;;;;;;;;;;1016942;29;20019;-30
2023/02/24 02:54:09;;;;;;;13.43;5.72;;;;;;;;;;1021442;28;20483;-30
2023/02/24 02:54:48;;;;;;;16.42;7.50;;;;;;;;;;1031790;28;20219;-30
2023/02/24 02:55:26;;;;;;;18.55;8.60;;;;;;;;;;1027866;28;20065;-30
2023/02/24 02:56:00;;;;;;;12.88;6.80;;;;;;;;;;1015022;28;20027;-30
2023/02/24 02:56:39;;;;;;;22.05;7.18;;;;;;;;;;1016372;28;20035;-30
2023/02/24 02:57:29;;;;;;;16.30;8.63;;;;;;;;;;1019484;28;20122;-29
2023/02/24 02:58:07;;;;;;;18.52;8.40;;;;;;;;;;1022399;28;20090;-30
2023/02/24 02:58:47;;;;;;;19.75;8.68;;;;;;;;;;1018461;29;20027;-30
2023/02/24 02:59:28;;;;;;;17.15;7.65;;;;;;;;;;1017365;29;20023;-30
2023/02/24 03:00:20;;;;;;;17.27;8.63;;;;;;;;;;1022194;28;20019;-30
2023/02/24 03:01:01;;;;;;;28.83;7.43;;;;;;;;;;1022702;28;20135;-30
2023/02/24 03:01:40;;;;;;;19.80;5.80;;;;;;;;;;1021721;28;20090;-30
2023/02/24 03:02:16;;;;;;;35.47;9.38;;;;;;;;;;1023029;28;20027;-30
2023/02/24 03:03:11;;;;;;;10.57;6.30;;;;;;;;;;1021953;28;20084;-30
2023/02/24 03:03:49;;;;;;;12.48;7.25;;;;;;;;;;1022667;28;20121;-30
2023/02/24 03:04:52;;;;;;;17.02;8.40;;;;;;;;;;1027120;28;20169;-30
2023/02/24 03:05:28;;;;;;;;;;;;;;;;;;1029986;28;20417;-31
2023/02/24 03:06:10;;;;;;;15.18;7.60;;;;;;;;;;1029037;28;19922;-29
2023/02/24 03:07:06;;;;;;;32.45;13.27;;;;;;;;;;1026603;28;20482;-30
2023/02/24 03:07:41;;;;;;;12.18;7.10;;;;;;;;;;1025604;28;20110;-29
2023/02/24 03:08:25;;;;;;;16.75;9.57;;;;;;;;;;1022718;28;20035;-29
2023/02/24 03:09:31;;;;;;;15.90;8.25;;;;;;;;;;1016897;29;20646;-28
2023/02/24 03:10:19;;;;;;;31.17;7.82;;;;;;;;;;1019115;29;20372;-31
2023/02/24 03:10:59;;;;;;;26.38;7.80;;;;;;;;;;1014015;29;20040;-30
2023/02/24 03:12:49;;;;;;;18.17;9.55;;;;;;;;;;1000752;29;20046;-29
2023/02/24 03:13:29;;;;;;;22.80;6.95;;;;;;;;;;1020327;28;20029;-30
2023/02/24 03:14:02;;;;;;;26.90;7.45;;;;;;;;;;1017852;29;20031;-30
2023/02/24 03:14:37;;;;;;;15.77;7.32;;;;;;;;;;1015033;29;20059;-29
2023/02/24 03:15:11;;;;;;;33.92;7.80;;;;;;;;;;1009504;29;20127;-29
2023/02/24 03:15:46;;;;;;;27.10;10.80;;;;;;;;;;1007750;29;20064;-31
2023/02/24 03:16:26;;;;;;;25.48;9.82;;;;;;;;;;1013201;29;20031;-29
2023/02/24 03:17:03;;;;;;;18.02;9.40;;;;;;;;;;1012830;29;20040;-29
2023/02/24 03:17:44;;;;;;;17.23;8.02;;;;;;;;;;1013180;29;20839;-29
2023/02/24 03:18:20;;;;;;;18.17;7.75;;;;;;;;;;1012484;29;20042;-30
2023/02/24 03:18:57;;;;;;;44.22;11.02;;;;;;;;;;1017609;29;20118;-30
2023/02/24 03:19:39;;;;;;;20.10;8.05;;;;;;;;;;1019659;29;20031;-30
2023/02/24 03:20:27;;;;;;;30.83;8.48;;;;;;;;;;1020152;29;20461;-30
2023/02/24 03:21:21;;;;;;;16.02;5.63;;;;;;;;;;1017983;29;20639;-30
2023/02/24 03:22:11;;;;;;;7.53;3.97;;;;;;;;;;1011311;29;20031;-30
2023/02/24 03:22:52;;;;;;;13.88;4.00;;;;;;;;;;1020100;28;20479;-29
2023/02/24 03:23:30;;;;;;;7.75;4.95;;;;;;;;;;1021987;28;20703;-29
2023/02/24 03:24:05;;;;;;;28.77;7.80;;;;;;;;;;1018576;28;20026;-29
2023/02/24 03:24:39;;;;;;;34.22;5.03;;;;;;;;;;1019076;28;20055;-30
2023/02/24 03:25:15;;;;;;;14.32;6.05;;;;;;;;;;1022435;28;20593;-30
2023/02/24 03:25:50;;;;;;;17.40;5.30;;;;;;;;;;1022623;28;20023;-29
2023/02/24 03:26:28;;;;;;;20.23;6.63;;;;;;;;;;1021360;28;20391;-28
2023/02/24 03:27:21;;;;;;;10.48;5.00;;;;;;;;;;1019089;29;20744;-31
2023/02/24 03:28:00;;;;;;;17.52;6.32;;;;;;;;;;1022914;28;20115;-30
2023/02/24 03:28:37;;;;;;;29.55;7.03;;;;;;;;;;1023725;28;20027;-27
2023/02/24 03:29:22;;;;;;;20.83;5.93;;;;;;;;;;1022185;28;20772;-29
2023/02/24 03:30:06;;;;;;;42.67;6.20;;;;;;;;;;1015935;29;20079;-30
2023/02/24 03:30:49;;;;;;;15.52;4.97;;;;;;;;;;1022800;28;20111;-30
2023/02/24 03:31:28;;;;;;;23.48;6.43;;;;;;;;;;1021097;28;20031;-30
2023/02/24 03:32:03;;;;;;;14.65;5.97;;;;;;;;;;1024126;28;20035;-31
2023/02/24 03:32:49;;;;;;;24.13;6.70;;;;;;;;;;1015712;29;20086;-30